Terminal Aerodrome Forecast
Issued by NWS Indianapolis, IN

Home | Current Version | Previous Version | Text Only | Print | Product List | Glossary On
Versions: 1 2 3 4 5 6 7 8 9 10 11 12 13 14 15 16 17 18 19 20 21 22 23 24 25 26
924
FTUS43 KIND 061430 AAA
TAFIND
TAF AMD
KIND 061430Z 0614/0718 04004KT 5SM -RA OVC015
     FM061600 01005KT P6SM VCSH OVC015
     FM061700 32006KT P6SM VCSH OVC025
     FM061900 30009KT P6SM BKN045
     FM062200 30012KT P6SM BKN015
     FM070200 29011KT P6SM BKN060
     FM070300 29010KT P6SM SCT080
     FM070900 27004KT P6SM BKN110=

USA.gov is the U.S. government's official web portal to all federal, state and local government web resources and services.